sensor_id;sensor_type;location;lat;lon;timestamp;P1;durP1;ratioP1;P2;durP2;ratioP2
54919;SDS011;63804;53.120;8.764;2023-04-24T00:00:03;2.95;;;1.48;;
54919;SDS011;63804;53.120;8.764;2023-04-24T00:02:36;2.10;;;1.13;;
54919;SDS011;63804;53.120;8.764;2023-04-24T00:05:07;1.52;;;1.10;;
54919;SDS011;63804;53.120;8.764;2023-04-24T00:07:34;3.60;;;1.35;;
54919;SDS011;63804;53.120;8.764;2023-04-24T00:10:02;1.38;;;1.10;;
54919;SDS011;63804;53.120;8.764;2023-04-24T00:12:29;3.00;;;1.50;;
54919;SDS011;63804;53.120;8.764;2023-04-24T00:14:57;1.88;;;1.17;;
54919;SDS011;63804;53.120;8.764;2023-04-24T00:17:24;3.45;;;1.30;;
54919;SDS011;63804;53.120;8.764;2023-04-24T00:19:51;3.15;;;1.27;;
54919;SDS011;63804;53.120;8.764;2023-04-24T00:22:25;2.25;;;1.20;;
54919;SDS011;63804;53.120;8.764;2023-04-24T00:24:53;3.25;;;1.50;;
54919;SDS011;63804;53.120;8.764;2023-04-24T00:27:20;3.65;;;1.35;;
54919;SDS011;63804;53.120;8.764;2023-04-24T00:29:47;3.42;;;1.33;;
54919;SDS011;63804;53.120;8.764;2023-04-24T00:32:14;1.90;;;1.40;;
54919;SDS011;63804;53.120;8.764;2023-04-24T00:34:42;3.17;;;1.50;;
54919;SDS011;63804;53.120;8.764;2023-04-24T00:37:09;2.72;;;1.60;;
54919;SDS011;63804;53.120;8.764;2023-04-24T00:39:36;2.80;;;1.50;;
54919;SDS011;63804;53.120;8.764;2023-04-24T00:42:03;2.13;;;1.42;;
54919;SDS011;63804;53.120;8.764;2023-04-24T00:44:35;2.70;;;1.20;;
54919;SDS011;63804;53.120;8.764;2023-04-24T00:47:02;2.08;;;1.20;;
54919;SDS011;63804;53.120;8.764;2023-04-24T00:49:29;2.17;;;1.30;;
54919;SDS011;63804;53.120;8.764;2023-04-24T00:51:57;2.40;;;1.05;;
54919;SDS011;63804;53.120;8.764;2023-04-24T00:54:25;1.10;;;1.00;;
54919;SDS011;63804;53.120;8.764;2023-04-24T00:56:52;1.75;;;0.90;;
54919;SDS011;63804;53.120;8.764;2023-04-24T00:59:19;2.03;;;0.90;;
54919;SDS011;63804;53.120;8.764;2023-04-24T01:01:46;1.42;;;0.90;;
54919;SDS011;63804;53.120;8.764;2023-04-24T01:04:13;0.88;;;0.80;;
54919;SDS011;63804;53.120;8.764;2023-04-24T01:06:42;2.17;;;0.88;;
54919;SDS011;63804;53.120;8.764;2023-04-24T01:09:10;0.70;;;0.60;;
54919;SDS011;63804;53.120;8.764;2023-04-24T01:11:39;1.98;;;0.82;;
54919;SDS011;63804;53.120;8.764;2023-04-24T01:14:09;0.82;;;0.80;;
54919;SDS011;63804;53.120;8.764;2023-04-24T01:16:36;2.72;;;0.90;;
54919;SDS011;63804;53.120;8.764;2023-04-24T01:19:07;1.50;;;1.00;;
54919;SDS011;63804;53.120;8.764;2023-04-24T01:21:37;1.75;;;1.10;;
54919;SDS011;63804;53.120;8.764;2023-04-24T01:24:05;1.13;;;1.00;;
54919;SDS011;63804;53.120;8.764;2023-04-24T01:26:33;1.10;;;1.00;;
54919;SDS011;63804;53.120;8.764;2023-04-24T01:29:00;3.35;;;1.00;;
54919;SDS011;63804;53.120;8.764;2023-04-24T01:31:27;1.00;;;0.90;;
54919;SDS011;63804;53.120;8.764;2023-04-24T01:33:55;1.00;;;0.90;;
54919;SDS011;63804;53.120;8.764;2023-04-24T01:36:23;1.35;;;0.95;;
54919;SDS011;63804;53.120;8.764;2023-04-24T01:38:52;1.05;;;0.90;;
54919;SDS011;63804;53.120;8.764;2023-04-24T01:41:19;0.88;;;0.85;;
54919;SDS011;63804;53.120;8.764;2023-04-24T01:43:47;1.00;;;0.90;;
54919;SDS011;63804;53.120;8.764;2023-04-24T01:46:15;1.00;;;0.90;;
54919;SDS011;63804;53.120;8.764;2023-04-24T01:48:42;1.75;;;0.90;;
54919;SDS011;63804;53.120;8.764;2023-04-24T01:51:11;1.15;;;0.80;;
54919;SDS011;63804;53.120;8.764;2023-04-24T01:53:38;2.28;;;1.08;;
54919;SDS011;63804;53.120;8.764;2023-04-24T01:56:05;1.88;;;1.00;;
54919;SDS011;63804;53.120;8.764;2023-04-24T01:58:33;1.90;;;1.00;;
54919;SDS011;63804;53.120;8.764;2023-04-24T02:01:00;1.55;;;1.10;;
54919;SDS011;63804;53.120;8.764;2023-04-24T02:03:27;1.02;;;0.85;;
54919;SDS011;63804;53.120;8.764;2023-04-24T02:05:55;1.23;;;0.88;;
54919;SDS011;63804;53.120;8.764;2023-04-24T02:08:22;1.92;;;0.95;;
54919;SDS011;63804;53.120;8.764;2023-04-24T02:10:49;1.65;;;1.00;;
54919;SDS011;63804;53.120;8.764;2023-04-24T02:13:16;1.63;;;0.90;;
54919;SDS011;63804;53.120;8.764;2023-04-24T02:15:43;2.50;;;1.10;;
54919;SDS011;63804;53.120;8.764;2023-04-24T02:18:10;1.25;;;0.80;;
54919;SDS011;63804;53.120;8.764;2023-04-24T02:20:38;2.45;;;0.98;;
54919;SDS011;63804;53.120;8.764;2023-04-24T02:23:04;2.65;;;1.00;;
54919;SDS011;63804;53.120;8.764;2023-04-24T02:25:32;1.15;;;0.90;;
54919;SDS011;63804;53.120;8.764;2023-04-24T02:28:00;1.77;;;1.20;;
54919;SDS011;63804;53.120;8.764;2023-04-24T02:30:27;1.60;;;1.10;;
54919;SDS011;63804;53.120;8.764;2023-04-24T02:32:54;2.22;;;1.15;;
54919;SDS011;63804;53.120;8.764;2023-04-24T02:35:22;1.45;;;1.10;;
54919;SDS011;63804;53.120;8.764;2023-04-24T02:37:49;1.90;;;1.20;;
54919;SDS011;63804;53.120;8.764;2023-04-24T02:40:16;2.00;;;1.50;;
54919;SDS011;63804;53.120;8.764;2023-04-24T02:42:43;2.38;;;1.70;;
54919;SDS011;63804;53.120;8.764;2023-04-24T02:45:10;2.97;;;1.77;;
54919;SDS011;63804;53.120;8.764;2023-04-24T02:47:37;3.05;;;2.00;;
54919;SDS011;63804;53.120;8.764;2023-04-24T02:50:04;2.90;;;1.63;;
54919;SDS011;63804;53.120;8.764;2023-04-24T02:52:31;4.78;;;1.80;;
54919;SDS011;63804;53.120;8.764;2023-04-24T02:54:58;1.90;;;1.70;;
54919;SDS011;63804;53.120;8.764;2023-04-24T02:57:25;4.60;;;1.85;;
54919;SDS011;63804;53.120;8.764;2023-04-24T02:59:52;4.85;;;2.05;;
54919;SDS011;63804;53.120;8.764;2023-04-24T03:02:19;3.03;;;2.10;;
54919;SDS011;63804;53.120;8.764;2023-04-24T03:04:47;3.30;;;2.05;;
54919;SDS011;63804;53.120;8.764;2023-04-24T03:07:14;3.42;;;2.00;;
54919;SDS011;63804;53.120;8.764;2023-04-24T03:09:41;3.00;;;2.10;;
54919;SDS011;63804;53.120;8.764;2023-04-24T03:12:09;3.17;;;2.20;;
54919;SDS011;63804;53.120;8.764;2023-04-24T03:14:35;3.30;;;1.98;;
54919;SDS011;63804;53.120;8.764;2023-04-24T03:17:02;2.85;;;1.92;;
54919;SDS011;63804;53.120;8.764;2023-04-24T03:19:29;2.33;;;2.05;;
54919;SDS011;63804;53.120;8.764;2023-04-24T03:21:56;3.35;;;1.85;;
54919;SDS011;63804;53.120;8.764;2023-04-24T03:24:23;3.15;;;2.00;;
54919;SDS011;63804;53.120;8.764;2023-04-24T03:26:50;3.00;;;1.80;;
54919;SDS011;63804;53.120;8.764;2023-04-24T03:29:17;3.97;;;1.90;;
54919;SDS011;63804;53.120;8.764;2023-04-24T03:31:44;3.78;;;1.90;;
54919;SDS011;63804;53.120;8.764;2023-04-24T03:34:11;4.80;;;2.20;;
54919;SDS011;63804;53.120;8.764;2023-04-24T03:36:38;2.70;;;2.10;;
54919;SDS011;63804;53.120;8.764;2023-04-24T03:39:05;3.97;;;2.10;;
54919;SDS011;63804;53.120;8.764;2023-04-24T03:41:31;4.03;;;2.20;;
54919;SDS011;63804;53.120;8.764;2023-04-24T03:43:58;2.58;;;2.10;;
54919;SDS011;63804;53.120;8.764;2023-04-24T03:46:25;3.78;;;2.45;;
54919;SDS011;63804;53.120;8.764;2023-04-24T03:48:52;3.20;;;2.20;;
54919;SDS011;63804;53.120;8.764;2023-04-24T03:51:19;4.32;;;2.00;;
54919;SDS011;63804;53.120;8.764;2023-04-24T03:53:46;5.55;;;2.03;;
54919;SDS011;63804;53.120;8.764;2023-04-24T03:56:13;3.38;;;2.10;;
54919;SDS011;63804;53.120;8.764;2023-04-24T03:58:40;2.83;;;2.10;;
54919;SDS011;63804;53.120;8.764;2023-04-24T04:01:07;3.45;;;2.08;;
54919;SDS011;63804;53.120;8.764;2023-04-24T04:03:34;3.38;;;2.08;;
54919;SDS011;63804;53.120;8.764;2023-04-24T04:06:02;2.88;;;2.03;;
54919;SDS011;63804;53.120;8.764;2023-04-24T04:08:29;3.50;;;2.30;;
54919;SDS011;63804;53.120;8.764;2023-04-24T04:10:56;3.13;;;2.00;;
54919;SDS011;63804;53.120;8.764;2023-04-24T04:13:22;4.00;;;1.95;;
54919;SDS011;63804;53.120;8.764;2023-04-24T04:15:49;5.63;;;2.08;;
54919;SDS011;63804;53.120;8.764;2023-04-24T04:18:16;3.60;;;1.80;;
54919;SDS011;63804;53.120;8.764;2023-04-24T04:20:44;3.35;;;2.03;;
54919;SDS011;63804;53.120;8.764;2023-04-24T04:23:10;2.72;;;1.90;;
54919;SDS011;63804;53.120;8.764;2023-04-24T04:25:37;3.15;;;1.90;;
54919;SDS011;63804;53.120;8.764;2023-04-24T04:28:04;4.85;;;2.10;;
54919;SDS011;63804;53.120;8.764;2023-04-24T04:30:32;4.32;;;2.10;;
54919;SDS011;63804;53.120;8.764;2023-04-24T04:32:59;2.70;;;1.85;;
54919;SDS011;63804;53.120;8.764;2023-04-24T04:35:26;2.72;;;1.88;;
54919;SDS011;63804;53.120;8.764;2023-04-24T04:37:53;4.95;;;1.88;;
54919;SDS011;63804;53.120;8.764;2023-04-24T04:40:20;3.53;;;1.92;;
54919;SDS011;63804;53.120;8.764;2023-04-24T04:42:46;4.03;;;2.13;;
54919;SDS011;63804;53.120;8.764;2023-04-24T04:45:14;4.40;;;1.85;;
54919;SDS011;63804;53.120;8.764;2023-04-24T04:47:43;3.13;;;1.83;;
54919;SDS011;63804;53.120;8.764;2023-04-24T04:50:10;4.47;;;1.90;;
54919;SDS011;63804;53.120;8.764;2023-04-24T04:52:37;4.50;;;1.95;;
54919;SDS011;63804;53.120;8.764;2023-04-24T04:55:04;3.70;;;2.03;;
54919;SDS011;63804;53.120;8.764;2023-04-24T04:57:32;5.63;;;2.03;;
54919;SDS011;63804;53.120;8.764;2023-04-24T04:59:59;4.80;;;1.90;;
54919;SDS011;63804;53.120;8.764;2023-04-24T05:02:26;3.60;;;1.80;;
54919;SDS011;63804;53.120;8.764;2023-04-24T05:04:53;3.22;;;2.03;;
54919;SDS011;63804;53.120;8.764;2023-04-24T05:07:21;4.15;;;2.00;;
54919;SDS011;63804;53.120;8.764;2023-04-24T05:09:48;3.20;;;2.00;;
54919;SDS011;63804;53.120;8.764;2023-04-24T05:12:14;3.75;;;2.20;;
54919;SDS011;63804;53.120;8.764;2023-04-24T05:14:41;5.25;;;2.00;;
54919;SDS011;63804;53.120;8.764;2023-04-24T05:17:08;5.65;;;2.08;;
54919;SDS011;63804;53.120;8.764;2023-04-24T05:19:35;7.18;;;2.03;;
54919;SDS011;63804;53.120;8.764;2023-04-24T05:22:04;9.23;;;2.40;;
54919;SDS011;63804;53.120;8.764;2023-04-24T05:24:33;6.72;;;2.28;;
54919;SDS011;63804;53.120;8.764;2023-04-24T05:27:01;5.15;;;2.33;;
54919;SDS011;63804;53.120;8.764;2023-04-24T05:29:28;7.00;;;2.60;;
54919;SDS011;63804;53.120;8.764;2023-04-24T05:31:57;5.20;;;2.30;;
54919;SDS011;63804;53.120;8.764;2023-04-24T05:34:24;6.10;;;2.55;;
54919;SDS011;63804;53.120;8.764;2023-04-24T05:36:51;4.80;;;2.92;;
54919;SDS011;63804;53.120;8.764;2023-04-24T05:39:18;6.85;;;3.10;;
54919;SDS011;63804;53.120;8.764;2023-04-24T05:41:46;7.20;;;3.25;;
54919;SDS011;63804;53.120;8.764;2023-04-24T05:44:13;6.03;;;3.45;;
54919;SDS011;63804;53.120;8.764;2023-04-24T05:46:40;7.10;;;3.50;;
54919;SDS011;63804;53.120;8.764;2023-04-24T05:49:07;5.45;;;3.42;;
54919;SDS011;63804;53.120;8.764;2023-04-24T05:51:34;9.85;;;3.97;;
54919;SDS011;63804;53.120;8.764;2023-04-24T05:54:01;7.22;;;4.20;;
54919;SDS011;63804;53.120;8.764;2023-04-24T05:56:29;7.93;;;4.00;;
54919;SDS011;63804;53.120;8.764;2023-04-24T05:58:57;7.32;;;4.45;;
54919;SDS011;63804;53.120;8.764;2023-04-24T06:01:24;7.25;;;4.50;;
54919;SDS011;63804;53.120;8.764;2023-04-24T06:03:54;8.90;;;4.40;;
54919;SDS011;63804;53.120;8.764;2023-04-24T06:06:21;7.43;;;4.50;;
54919;SDS011;63804;53.120;8.764;2023-04-24T06:08:48;7.70;;;4.68;;
54919;SDS011;63804;53.120;8.764;2023-04-24T06:11:15;8.18;;;4.50;;
54919;SDS011;63804;53.120;8.764;2023-04-24T06:13:42;6.75;;;4.18;;
54919;SDS011;63804;53.120;8.764;2023-04-24T06:16:09;8.52;;;4.57;;
54919;SDS011;63804;53.120;8.764;2023-04-24T06:18:36;8.32;;;4.53;;
54919;SDS011;63804;53.120;8.764;2023-04-24T06:21:03;7.72;;;4.20;;
54919;SDS011;63804;53.120;8.764;2023-04-24T06:23:30;7.90;;;4.28;;
54919;SDS011;63804;53.120;8.764;2023-04-24T06:25:59;8.50;;;4.35;;
54919;SDS011;63804;53.120;8.764;2023-04-24T06:28:26;7.05;;;4.20;;
54919;SDS011;63804;53.120;8.764;2023-04-24T06:30:53;8.57;;;4.60;;
54919;SDS011;63804;53.120;8.764;2023-04-24T06:33:20;12.65;;;4.60;;
54919;SDS011;63804;53.120;8.764;2023-04-24T06:35:49;8.90;;;4.22;;
54919;SDS011;63804;53.120;8.764;2023-04-24T06:38:16;10.32;;;4.57;;
54919;SDS011;63804;53.120;8.764;2023-04-24T06:40:43;7.15;;;4.35;;
54919;SDS011;63804;53.120;8.764;2023-04-24T06:43:10;9.07;;;4.80;;
54919;SDS011;63804;53.120;8.764;2023-04-24T06:45:38;10.07;;;5.50;;
54919;SDS011;63804;53.120;8.764;2023-04-24T06:48:06;9.85;;;5.28;;
54919;SDS011;63804;53.120;8.764;2023-04-24T06:50:33;10.77;;;5.13;;
54919;SDS011;63804;53.120;8.764;2023-04-24T06:53:00;8.82;;;5.00;;
54919;SDS011;63804;53.120;8.764;2023-04-24T06:55:27;10.20;;;5.47;;
54919;SDS011;63804;53.120;8.764;2023-04-24T06:57:54;10.00;;;5.40;;
54919;SDS011;63804;53.120;8.764;2023-04-24T07:00:21;9.85;;;5.50;;
54919;SDS011;63804;53.120;8.764;2023-04-24T07:02:50;10.35;;;6.05;;
54919;SDS011;63804;53.120;8.764;2023-04-24T07:05:18;9.38;;;6.13;;
54919;SDS011;63804;53.120;8.764;2023-04-24T07:07:49;11.73;;;6.35;;
54919;SDS011;63804;53.120;8.764;2023-04-24T07:10:17;12.05;;;7.10;;
54919;SDS011;63804;53.120;8.764;2023-04-24T07:12:44;10.75;;;6.75;;
54919;SDS011;63804;53.120;8.764;2023-04-24T07:15:11;10.00;;;6.63;;
54919;SDS011;63804;53.120;8.764;2023-04-24T07:17:39;12.48;;;7.18;;
54919;SDS011;63804;53.120;8.764;2023-04-24T07:20:10;11.02;;;6.53;;
54919;SDS011;63804;53.120;8.764;2023-04-24T07:22:38;10.27;;;6.80;;
54919;SDS011;63804;53.120;8.764;2023-04-24T07:25:05;12.48;;;7.32;;
54919;SDS011;63804;53.120;8.764;2023-04-24T07:27:33;13.57;;;7.47;;
54919;SDS011;63804;53.120;8.764;2023-04-24T07:30:01;12.32;;;6.82;;
54919;SDS011;63804;53.120;8.764;2023-04-24T07:32:30;10.82;;;6.72;;
54919;SDS011;63804;53.120;8.764;2023-04-24T07:34:57;12.95;;;6.65;;
54919;SDS011;63804;53.120;8.764;2023-04-24T07:37:24;10.25;;;6.30;;
54919;SDS011;63804;53.120;8.764;2023-04-24T07:39:51;9.18;;;6.47;;
54919;SDS011;63804;53.120;8.764;2023-04-24T07:42:18;8.20;;;5.60;;
54919;SDS011;63804;53.120;8.764;2023-04-24T07:44:45;10.43;;;6.63;;
54919;SDS011;63804;53.120;8.764;2023-04-24T07:47:14;9.70;;;5.95;;
54919;SDS011;63804;53.120;8.764;2023-04-24T07:49:44;10.15;;;6.10;;
54919;SDS011;63804;53.120;8.764;2023-04-24T07:52:11;8.55;;;6.05;;
54919;SDS011;63804;53.120;8.764;2023-04-24T07:54:38;9.38;;;5.63;;
54919;SDS011;63804;53.120;8.764;2023-04-24T07:57:05;11.60;;;6.65;;
54919;SDS011;63804;53.120;8.764;2023-04-24T07:59:33;11.00;;;6.40;;
54919;SDS011;63804;53.120;8.764;2023-04-24T08:02:00;11.40;;;5.80;;
54919;SDS011;63804;53.120;8.764;2023-04-24T08:04:28;9.80;;;6.03;;
54919;SDS011;63804;53.120;8.764;2023-04-24T08:06:55;10.00;;;5.78;;
54919;SDS011;63804;53.120;8.764;2023-04-24T08:09:22;9.48;;;6.10;;
54919;SDS011;63804;53.120;8.764;2023-04-24T08:11:52;10.25;;;5.68;;
54919;SDS011;63804;53.120;8.764;2023-04-24T08:14:20;9.63;;;5.85;;
54919;SDS011;63804;53.120;8.764;2023-04-24T08:16:47;11.43;;;5.85;;
54919;SDS011;63804;53.120;8.764;2023-04-24T08:19:14;10.32;;;6.45;;
54919;SDS011;63804;53.120;8.764;2023-04-24T08:21:41;13.73;;;6.78;;
54919;SDS011;63804;53.120;8.764;2023-04-24T08:24:08;10.43;;;6.22;;
54919;SDS011;63804;53.120;8.764;2023-04-24T08:26:35;10.73;;;6.45;;
54919;SDS011;63804;53.120;8.764;2023-04-24T08:29:02;11.18;;;6.38;;
54919;SDS011;63804;53.120;8.764;2023-04-24T08:31:29;12.80;;;6.50;;
54919;SDS011;63804;53.120;8.764;2023-04-24T08:33:56;10.30;;;6.00;;
54919;SDS011;63804;53.120;8.764;2023-04-24T08:36:23;10.55;;;6.90;;
54919;SDS011;63804;53.120;8.764;2023-04-24T08:39:05;11.93;;;6.50;;
54919;SDS011;63804;53.120;8.764;2023-04-24T08:41:33;10.75;;;6.85;;
54919;SDS011;63804;53.120;8.764;2023-04-24T08:44:01;11.65;;;6.70;;
54919;SDS011;63804;53.120;8.764;2023-04-24T08:46:29;9.48;;;6.50;;
54919;SDS011;63804;53.120;8.764;2023-04-24T08:48:57;13.32;;;6.65;;
54919;SDS011;63804;53.120;8.764;2023-04-24T08:51:25;9.75;;;6.60;;
54919;SDS011;63804;53.120;8.764;2023-04-24T08:53:53;11.13;;;6.28;;
54919;SDS011;63804;53.120;8.764;2023-04-24T08:56:21;10.05;;;6.22;;
54919;SDS011;63804;53.120;8.764;2023-04-24T08:58:50;8.98;;;5.97;;
54919;SDS011;63804;53.120;8.764;2023-04-24T09:01:19;10.85;;;6.43;;
54919;SDS011;63804;53.120;8.764;2023-04-24T09:03:49;11.63;;;6.50;;
54919;SDS011;63804;53.120;8.764;2023-04-24T09:06:17;10.40;;;6.00;;
54919;SDS011;63804;53.120;8.764;2023-04-24T09:08:45;12.40;;;6.97;;
54919;SDS011;63804;53.120;8.764;2023-04-24T09:11:13;13.45;;;6.95;;
54919;SDS011;63804;53.120;8.764;2023-04-24T09:13:40;11.80;;;7.18;;
54919;SDS011;63804;53.120;8.764;2023-04-24T09:16:08;12.95;;;7.82;;
54919;SDS011;63804;53.120;8.764;2023-04-24T09:18:35;10.50;;;7.15;;
54919;SDS011;63804;53.120;8.764;2023-04-24T09:21:08;13.50;;;7.47;;
54919;SDS011;63804;53.120;8.764;2023-04-24T09:23:36;11.73;;;7.63;;
54919;SDS011;63804;53.120;8.764;2023-04-24T09:26:03;12.35;;;7.82;;
54919;SDS011;63804;53.120;8.764;2023-04-24T09:28:38;11.80;;;7.63;;
54919;SDS011;63804;53.120;8.764;2023-04-24T09:31:11;12.98;;;8.52;;
54919;SDS011;63804;53.120;8.764;2023-04-24T09:33:40;14.55;;;9.18;;
54919;SDS011;63804;53.120;8.764;2023-04-24T09:36:27;14.52;;;10.80;;
54919;SDS011;63804;53.120;8.764;2023-04-24T09:39:04;14.13;;;10.90;;
54919;SDS011;63804;53.120;8.764;2023-04-24T09:41:32;15.00;;;10.68;;
54919;SDS011;63804;53.120;8.764;2023-04-24T09:44:16;17.80;;;11.43;;
54919;SDS011;63804;53.120;8.764;2023-04-24T09:49:12;15.02;;;10.18;;
54919;SDS011;63804;53.120;8.764;2023-04-24T09:51:42;14.63;;;10.85;;
54919;SDS011;63804;53.120;8.764;2023-04-24T09:54:16;14.07;;;10.45;;
54919;SDS011;63804;53.120;8.764;2023-04-24T09:56:45;16.63;;;10.50;;
54919;SDS011;63804;53.120;8.764;2023-04-24T09:59:13;15.25;;;9.35;;
54919;SDS011;63804;53.120;8.764;2023-04-24T10:01:42;13.27;;;9.77;;
54919;SDS011;63804;53.120;8.764;2023-04-24T10:04:32;13.45;;;9.80;;
54919;SDS011;63804;53.120;8.764;2023-04-24T10:06:58;14.98;;;9.13;;
54919;SDS011;63804;53.120;8.764;2023-04-24T10:09:26;13.98;;;10.07;;
54919;SDS011;63804;53.120;8.764;2023-04-24T10:11:53;14.02;;;9.63;;
54919;SDS011;63804;53.120;8.764;2023-04-24T10:14:22;12.65;;;8.68;;
54919;SDS011;63804;53.120;8.764;2023-04-24T10:16:50;13.45;;;9.25;;
54919;SDS011;63804;53.120;8.764;2023-04-24T10:19:20;14.13;;;9.82;;
54919;SDS011;63804;53.120;8.764;2023-04-24T10:21:47;14.00;;;8.93;;
54919;SDS011;63804;53.120;8.764;2023-04-24T10:24:18;12.85;;;8.82;;
54919;SDS011;63804;53.120;8.764;2023-04-24T10:26:47;11.48;;;8.70;;
54919;SDS011;63804;53.120;8.764;2023-04-24T10:29:17;12.05;;;8.48;;
54919;SDS011;63804;53.120;8.764;2023-04-24T10:31:45;13.45;;;8.23;;
54919;SDS011;63804;53.120;8.764;2023-04-24T10:34:14;14.27;;;8.02;;
54919;SDS011;63804;53.120;8.764;2023-04-24T10:36:48;11.73;;;7.95;;
54919;SDS011;63804;53.120;8.764;2023-04-24T10:39:22;10.95;;;7.72;;
54919;SDS011;63804;53.120;8.764;2023-04-24T10:41:54;11.55;;;7.43;;
54919;SDS011;63804;53.120;8.764;2023-04-24T10:44:24;11.52;;;7.68;;
54919;SDS011;63804;53.120;8.764;2023-04-24T10:46:57;11.85;;;6.95;;
54919;SDS011;63804;53.120;8.764;2023-04-24T10:49:28;11.35;;;7.93;;
54919;SDS011;63804;53.120;8.764;2023-04-24T10:52:00;10.77;;;7.15;;
54919;SDS011;63804;53.120;8.764;2023-04-24T10:54:36;10.65;;;7.18;;
54919;SDS011;63804;53.120;8.764;2023-04-24T10:59:46;10.18;;;6.97;;
54919;SDS011;63804;53.120;8.764;2023-04-24T11:02:15;11.93;;;7.25;;
54919;SDS011;63804;53.120;8.764;2023-04-24T11:04:42;11.27;;;7.10;;
54919;SDS011;63804;53.120;8.764;2023-04-24T11:07:13;11.88;;;8.10;;
54919;SDS011;63804;53.120;8.764;2023-04-24T11:09:42;10.25;;;6.82;;
54919;SDS011;63804;53.120;8.764;2023-04-24T11:12:10;10.45;;;7.45;;
54919;SDS011;63804;53.120;8.764;2023-04-24T11:17:38;10.55;;;7.00;;
54919;SDS011;63804;53.120;8.764;2023-04-24T11:20:07;8.18;;;5.45;;
54919;SDS011;63804;53.120;8.764;2023-04-24T11:22:57;9.57;;;5.68;;
54919;SDS011;63804;53.120;8.764;2023-04-24T11:25:33;8.80;;;5.90;;
54919;SDS011;63804;53.120;8.764;2023-04-24T11:28:05;9.07;;;6.70;;
54919;SDS011;63804;53.120;8.764;2023-04-24T11:30:33;10.52;;;6.35;;
54919;SDS011;63804;53.120;8.764;2023-04-24T11:33:04;7.95;;;5.72;;
54919;SDS011;63804;53.120;8.764;2023-04-24T11:35:35;9.20;;;6.38;;
54919;SDS011;63804;53.120;8.764;2023-04-24T11:38:06;10.50;;;6.65;;
54919;SDS011;63804;53.120;8.764;2023-04-24T11:40:49;9.68;;;6.55;;
54919;SDS011;63804;53.120;8.764;2023-04-24T11:43:17;9.85;;;6.50;;
54919;SDS011;63804;53.120;8.764;2023-04-24T11:45:49;9.57;;;6.32;;
54919;SDS011;63804;53.120;8.764;2023-04-24T11:48:19;8.25;;;5.72;;
54919;SDS011;63804;53.120;8.764;2023-04-24T11:50:50;8.65;;;5.47;;
54919;SDS011;63804;53.120;8.764;2023-04-24T11:53:18;8.85;;;5.75;;
54919;SDS011;63804;53.120;8.764;2023-04-24T11:55:48;7.85;;;5.30;;
54919;SDS011;63804;53.120;8.764;2023-04-24T11:58:15;7.18;;;4.65;;
54919;SDS011;63804;53.120;8.764;2023-04-24T12:00:57;7.18;;;5.22;;
54919;SDS011;63804;53.120;8.764;2023-04-24T12:03:25;7.18;;;5.38;;
54919;SDS011;63804;53.120;8.764;2023-04-24T12:06:08;7.47;;;5.22;;
54919;SDS011;63804;53.120;8.764;2023-04-24T12:08:38;7.90;;;5.47;;
54919;SDS011;63804;53.120;8.764;2023-04-24T12:11:06;7.60;;;5.15;;
54919;SDS011;63804;53.120;8.764;2023-04-24T12:13:34;6.97;;;5.15;;
54919;SDS011;63804;53.120;8.764;2023-04-24T12:16:04;7.57;;;5.50;;
54919;SDS011;63804;53.120;8.764;2023-04-24T12:18:32;8.40;;;5.47;;
54919;SDS011;63804;53.120;8.764;2023-04-24T12:21:25;7.90;;;5.70;;
54919;SDS011;63804;53.120;8.764;2023-04-24T12:24:00;8.82;;;5.82;;
54919;SDS011;63804;53.120;8.764;2023-04-24T12:26:27;9.80;;;6.20;;
54919;SDS011;63804;53.120;8.764;2023-04-24T12:28:55;8.73;;;5.90;;
54919;SDS011;63804;53.120;8.764;2023-04-24T12:31:29;9.38;;;6.07;;
54919;SDS011;63804;53.120;8.764;2023-04-24T12:33:58;6.35;;;4.95;;
54919;SDS011;63804;53.120;8.764;2023-04-24T12:36:25;8.63;;;6.32;;
54919;SDS011;63804;53.120;8.764;2023-04-24T12:38:53;9.15;;;6.35;;
54919;SDS011;63804;53.120;8.764;2023-04-24T12:41:22;10.27;;;6.10;;
54919;SDS011;63804;53.120;8.764;2023-04-24T12:43:53;8.60;;;5.78;;
54919;SDS011;63804;53.120;8.764;2023-04-24T12:46:22;8.35;;;5.72;;
54919;SDS011;63804;53.120;8.764;2023-04-24T12:48:49;7.85;;;6.05;;
54919;SDS011;63804;53.120;8.764;2023-04-24T12:51:19;8.55;;;5.68;;
54919;SDS011;63804;53.120;8.764;2023-04-24T12:53:46;8.35;;;5.38;;
54919;SDS011;63804;53.120;8.764;2023-04-24T12:56:13;6.40;;;4.90;;
54919;SDS011;63804;53.120;8.764;2023-04-24T12:58:43;7.18;;;5.05;;
54919;SDS011;63804;53.120;8.764;2023-04-24T13:01:13;6.90;;;4.30;;
54919;SDS011;63804;53.120;8.764;2023-04-24T13:03:40;7.53;;;3.90;;
54919;SDS011;63804;53.120;8.764;2023-04-24T13:06:07;7.28;;;3.70;;
54919;SDS011;63804;53.120;8.764;2023-04-24T13:08:34;7.40;;;3.90;;
54919;SDS011;63804;53.120;8.764;2023-04-24T13:11:04;10.02;;;5.10;;
54919;SDS011;63804;53.120;8.764;2023-04-24T13:13:33;10.80;;;6.22;;
54919;SDS011;63804;53.120;8.764;2023-04-24T13:16:00;12.80;;;7.22;;
54919;SDS011;63804;53.120;8.764;2023-04-24T13:18:27;13.43;;;9.10;;
54919;SDS011;63804;53.120;8.764;2023-04-24T13:20:55;16.60;;;10.68;;
54919;SDS011;63804;53.120;8.764;2023-04-24T13:23:25;19.42;;;14.02;;
54919;SDS011;63804;53.120;8.764;2023-04-24T13:25:55;17.10;;;12.20;;
54919;SDS011;63804;53.120;8.764;2023-04-24T13:28:25;18.33;;;12.85;;
54919;SDS011;63804;53.120;8.764;2023-04-24T13:30:52;22.27;;;13.60;;
54919;SDS011;63804;53.120;8.764;2023-04-24T13:33:19;18.75;;;12.55;;
54919;SDS011;63804;53.120;8.764;2023-04-24T13:35:46;15.10;;;10.00;;
54919;SDS011;63804;53.120;8.764;2023-04-24T13:38:13;13.45;;;8.05;;
54919;SDS011;63804;53.120;8.764;2023-04-24T13:40:40;14.07;;;8.60;;
54919;SDS011;63804;53.120;8.764;2023-04-24T13:43:07;16.55;;;9.43;;
54919;SDS011;63804;53.120;8.764;2023-04-24T13:45:34;15.15;;;7.80;;
54919;SDS011;63804;53.120;8.764;2023-04-24T13:48:01;14.40;;;8.40;;
54919;SDS011;63804;53.120;8.764;2023-04-24T13:50:29;14.70;;;7.45;;
54919;SDS011;63804;53.120;8.764;2023-04-24T13:52:56;15.80;;;8.20;;
54919;SDS011;63804;53.120;8.764;2023-04-24T13:55:24;16.67;;;7.53;;
54919;SDS011;63804;53.120;8.764;2023-04-24T13:57:52;14.52;;;8.38;;
54919;SDS011;63804;53.120;8.764;2023-04-24T14:00:21;15.88;;;8.13;;
54919;SDS011;63804;53.120;8.764;2023-04-24T14:02:49;15.40;;;9.10;;
54919;SDS011;63804;53.120;8.764;2023-04-24T14:05:16;12.02;;;7.00;;
54919;SDS011;63804;53.120;8.764;2023-04-24T14:07:43;11.05;;;5.40;;
54919;SDS011;63804;53.120;8.764;2023-04-24T14:10:10;10.30;;;5.03;;
54919;SDS011;63804;53.120;8.764;2023-04-24T14:12:37;8.68;;;4.22;;
54919;SDS011;63804;53.120;8.764;2023-04-24T14:15:04;11.40;;;4.10;;
54919;SDS011;63804;53.120;8.764;2023-04-24T14:17:32;8.80;;;4.20;;
54919;SDS011;63804;53.120;8.764;2023-04-24T14:19:59;9.82;;;3.78;;
54919;SDS011;63804;53.120;8.764;2023-04-24T14:22:27;11.10;;;3.45;;
54919;SDS011;63804;53.120;8.764;2023-04-24T14:24:54;6.40;;;2.90;;
54919;SDS011;63804;53.120;8.764;2023-04-24T14:27:21;9.48;;;3.50;;
54919;SDS011;63804;53.120;8.764;2023-04-24T14:29:48;9.38;;;3.20;;
54919;SDS011;63804;53.120;8.764;2023-04-24T14:32:18;11.57;;;3.33;;
54919;SDS011;63804;53.120;8.764;2023-04-24T14:34:45;8.30;;;3.38;;
54919;SDS011;63804;53.120;8.764;2023-04-24T14:37:12;12.10;;;3.92;;
54919;SDS011;63804;53.120;8.764;2023-04-24T14:39:39;7.07;;;3.22;;
54919;SDS011;63804;53.120;8.764;2023-04-24T14:42:06;9.63;;;3.78;;
54919;SDS011;63804;53.120;8.764;2023-04-24T14:44:33;11.35;;;3.60;;
54919;SDS011;63804;53.120;8.764;2023-04-24T14:47:00;8.43;;;3.20;;
54919;SDS011;63804;53.120;8.764;2023-04-24T14:49:27;12.55;;;3.45;;
54919;SDS011;63804;53.120;8.764;2023-04-24T14:51:54;8.80;;;3.38;;
54919;SDS011;63804;53.120;8.764;2023-04-24T14:54:22;10.90;;;3.30;;
54919;SDS011;63804;53.120;8.764;2023-04-24T14:56:49;8.35;;;3.40;;